ダブリン の空港の天気 - METARとTAF

ダブリン空港 ( EIDW / DUB ) - アイルランド ダブリン
飛行場実況気象(Metar)
観測時間08/22 17:30 GMT (08/22 16:30 UTC)
風向・風速西南西 7m/s 瞬間風速13m/s
視程10km以上
天気現象
全天の4割程度の雲 雲底高度 550m
全天の8割程度の雲 雲底高度 910m
気温20℃
湿度78%
気圧1018hPa
METAREIDW 221630Z 25014G26KT 170V280 9999 SCT018 BKN030 20/16 Q1018 NOSIG
過去の天気等 Google飛行場航空写真 Wunderground天気予報

過去48時間のMETAR

飛行場予報(TAF)
発表時間: 8/22 12:00 GMT (8/22 11:00 UTC)
予報対象時間: 22日13時 GMT ~ 23日13時 GMT
風向・風速南西 7m/s
視程10km以上
少しの雲 雲底高度 460m
全天の8割程度の雲 雲底高度 760m
22日13時 GMT ~ 22日19時 GMT に一時的に
風向・風速南西 8m/s 瞬間風速 13m/s
22日20時 GMT ~ 22日22時 GMT に徐々に
風向・風速南西 4m/s
23日2時 GMT ~ 23日8時 GMT に 確率 30% で一時的に
全天の8割程度の雲 雲底高度 300m
TAF EIDW 221100Z 2212/2312 23013KT 9999 FEW015 BKN025
TEMPO 2212/2218 23016G26KT
BECMG 2219/2221 23008KT
PROB30 TEMPO 2301/2307 BKN010